Time;durP1;ratioP1;P1;durP2;ratioP2;P2;SDS_P1;SDS_P2;PMS_P1;PMS_P2;Temp;Humidity;BMP_temperature;BMP_pressure;BME280_temperature;BME280_humidity;BME280_pressure;Samples;Min_cycle;Max_cycle;Signal;HPM_P1;HPM_P2
2023/10/11 00:01:17;;;;;;;;;20.00;15.67;;;;;15.20;100.00;101699.25;5036163;28;45303;-74
2023/10/11 00:03:52;;;;;;;;;22.67;19.00;;;;;15.14;100.00;101687.13;5032604;28;45247;-74
2023/10/11 00:06:18;;;;;;;;;24.00;17.33;;;;;15.10;100.00;101688.22;5040475;28;45565;-74
2023/10/11 00:08:43;;;;;;;;;21.00;19.33;;;;;15.15;100.00;101702.16;5040232;28;47024;-75
2023/10/11 00:11:09;;;;;;;;;20.33;16.33;;;;;15.05;100.00;101696.44;5041532;28;46088;-75
2023/10/11 00:13:36;;;;;;;;;19.00;18.33;;;;;15.05;100.00;101699.09;5039685;28;45373;-75
2023/10/11 00:16:07;;;;;;;;;21.33;21.00;;;;;15.01;100.00;101692.22;5038934;28;45579;-75
2023/10/11 00:18:37;;;;;;;;;24.67;21.33;;;;;14.75;100.00;101678.50;5034771;28;45276;-74
2023/10/11 00:21:10;;;;;;;;;27.33;20.67;;;;;14.95;100.00;101681.84;5021254;28;46424;-75
2023/10/11 00:23:38;;;;;;;;;21.67;20.00;;;;;15.05;100.00;101714.25;5020682;28;45354;-75
2023/10/11 00:26:06;;;;;;;;;24.67;22.33;;;;;14.91;100.00;101688.31;5025563;28;45445;-75
2023/10/11 00:28:33;;;;;;;;;22.00;19.00;;;;;15.02;100.00;101709.91;5035012;28;45684;-75
2023/10/11 00:31:00;;;;;;;;;22.00;21.00;;;;;14.78;100.00;101670.38;5026611;28;47077;-75
2023/10/11 00:33:29;;;;;;;;;27.00;22.00;;;;;15.00;100.00;101711.81;5026672;28;45554;-75
2023/10/11 00:35:55;;;;;;;;;25.67;20.00;;;;;14.99;100.00;101717.19;5025440;28;45926;-75
2023/10/11 00:38:27;;;;;;;;;22.00;21.00;;;;;14.92;100.00;101711.31;5035606;28;45462;-75
2023/10/11 00:41:17;;;;;;;;;23.67;22.33;;;;;14.77;100.00;101681.94;5029197;28;46947;-75
2023/10/11 00:43:50;;;;;;;;;23.33;19.00;;;;;14.90;100.00;101715.00;5028067;28;45304;-74
2023/10/11 00:46:19;;;;;;;;;24.00;20.00;;;;;14.89;100.00;101727.47;5034027;28;45380;-75
2023/10/11 00:51:46;;;;;;;;;22.00;18.33;;;;;14.82;100.00;101693.25;5062549;28;46518;-75
2023/10/11 00:54:15;;;;;;;;;23.67;19.33;;;;;14.78;100.00;101684.53;5037490;28;45588;-75
2023/10/11 00:56:43;;;;;;;;;28.00;25.33;;;;;14.80;100.00;101689.78;5021883;28;45654;-75
2023/10/11 00:59:15;;;;;;;;;26.00;23.67;;;;;14.69;100.00;101676.16;5034072;28;45611;-75
2023/10/11 01:01:45;;;;;;;;;21.00;19.67;;;;;14.33;100.00;101615.81;5029536;28;45540;-75
2023/10/11 01:04:10;;;;;;;;;23.67;22.67;;;;;14.77;100.00;101689.94;5034372;28;45472;-75
2023/10/11 01:06:36;;;;;;;;;26.33;22.33;;;;;14.74;100.00;101680.31;5029425;28;45345;-75
2023/10/11 01:09:17;;;;;;;;;28.67;23.33;;;;;14.68;100.00;101675.28;5032562;28;45744;-75
2023/10/11 01:11:47;;;;;;;;;22.00;15.00;;;;;14.58;100.00;101658.91;5037728;28;47101;-74
2023/10/11 01:14:12;;;;;;;;;21.00;19.33;;;;;14.55;100.00;101664.41;5031479;28;45292;-75
2023/10/11 01:16:38;;;;;;;;;23.67;19.67;;;;;14.58;100.00;101660.72;5035496;28;45344;-75
2023/10/11 01:19:11;;;;;;;;;20.67;20.67;;;;;14.54;100.00;101659.13;5034331;28;46121;-75
2023/10/11 01:21:37;;;;;;;;;22.00;19.00;;;;;14.55;100.00;101664.41;5023598;28;46351;-75
2023/10/11 01:24:02;;;;;;;;;21.67;19.00;;;;;14.53;100.00;101666.25;5027396;28;45344;-75
2023/10/11 01:26:28;;;;;;;;;23.67;20.00;;;;;14.51;100.00;101669.94;5033756;28;45306;-75
2023/10/11 01:28:56;;;;;;;;;20.33;17.00;;;;;14.49;100.00;101674.50;5011987;28;45540;-74
2023/10/11 01:31:21;;;;;;;;;23.00;23.00;;;;;14.39;100.00;101652.78;5036974;28;47315;-76
2023/10/11 01:33:52;;;;;;;;;22.33;21.00;;;;;14.43;100.00;101656.16;5031560;28;45423;-75
2023/10/11 01:36:21;;;;;;;;;16.33;14.00;;;;;14.42;100.00;101665.06;5023910;28;45454;-74
2023/10/11 01:38:47;;;;;;;;;24.67;21.33;;;;;14.39;100.00;101643.94;5039578;28;45395;-75
2023/10/11 01:41:18;;;;;;;;;20.33;19.00;;;;;14.41;100.00;101645.56;5038305;28;45944;-75
2023/10/11 01:43:46;;;;;;;;;21.67;21.33;;;;;14.44;100.00;101645.44;5028298;28;45271;-75
2023/10/11 01:46:25;;;;;;;;;14.33;10.00;;;;;14.34;100.00;101622.88;5031574;28;45537;-75
2023/10/11 01:48:52;;;;;;;;;20.00;19.00;;;;;14.41;100.00;101644.72;5024052;28;45337;-76
2023/10/11 01:51:26;;;;;;;;;21.00;18.33;;;;;14.26;100.00;101610.84;5035583;28;45329;-75
2023/10/11 01:53:59;;;;;;;;;22.33;19.33;;;;;14.39;100.00;101635.97;5029389;28;45294;-75
2023/10/11 01:56:26;;;;;;;;;19.00;16.67;;;;;14.36;100.00;101642.28;5030545;28;45477;-75
2023/10/11 01:58:52;;;;;;;;;19.00;17.67;;;;;14.34;100.00;101651.28;5020615;28;45290;-75
2023/10/11 02:01:38;;;;;;;;;23.00;17.00;;;;;14.24;100.00;101632.19;5035358;28;47704;-74
2023/10/11 02:04:04;;;;;;;;;20.00;17.00;;;;;14.30;100.00;101636.38;5050154;28;45364;-75
2023/10/11 02:06:33;;;;;;;;;17.67;16.33;;;;;14.30;100.00;101629.22;5028712;28;45348;-75
2023/10/11 02:08:59;;;;;;;;;14.00;13.00;;;;;14.28;100.00;101623.13;5035970;28;46958;-75
2023/10/11 02:11:29;;;;;;;;;22.00;18.67;;;;;14.22;100.00;101622.59;5028324;28;45708;-76
2023/10/11 02:13:57;;;;;;;;;25.00;17.00;;;;;14.08;100.00;101612.59;5036388;28;45308;-75
2023/10/11 02:16:23;;;;;;;;;22.67;17.67;;;;;13.96;100.00;101590.16;5038588;28;45417;-75
2023/10/11 02:18:51;;;;;;;;;19.67;18.67;;;;;13.84;100.00;101565.94;5034347;28;45571;-75
2023/10/11 02:21:20;;;;;;;;;18.33;18.00;;;;;14.08;100.00;101610.81;5023547;28;47127;-75
2023/10/11 02:23:46;;;;;;;;;14.67;12.33;;;;;13.92;100.00;101582.38;5036896;28;45478;-75
2023/10/11 02:26:14;;;;;;;;;19.33;18.00;;;;;14.12;100.00;101616.84;5031658;28;45459;-74
2023/10/11 02:28:40;;;;;;;;;20.00;20.00;;;;;13.89;100.00;101575.41;5033474;28;45346;-75
2023/10/11 02:31:06;;;;;;;;;25.00;17.33;;;;;14.08;100.00;101610.81;5028728;28;46074;-75
2023/10/11 02:33:33;;;;;;;;;19.33;17.67;;;;;13.93;100.00;101592.94;5024731;28;45249;-75
2023/10/11 02:36:17;;;;;;;;;21.00;17.67;;;;;14.09;100.00;101617.00;5033168;28;46936;-76
2023/10/11 02:38:50;;;;;;;;;21.67;19.67;;;;;13.74;100.00;101556.69;5030498;28;45537;-75
2023/10/11 02:41:21;;;;;;;;;18.33;16.00;;;;;13.86;100.00;101588.00;5030224;28;46352;-74
2023/10/11 02:43:50;;;;;;;;;21.67;18.00;;;;;13.93;100.00;101605.38;5031858;28;45489;-74
2023/10/11 02:46:16;;;;;;;;;19.67;18.00;;;;;13.99;100.00;101627.22;5021184;28;45543;-75
2023/10/11 02:48:46;;;;;;;;;19.33;18.00;;;;;14.00;100.00;101610.31;5024520;28;45680;-75
2023/10/11 02:51:24;;;;;;;;;20.67;19.00;;;;;13.99;100.00;101615.72;5023479;28;46279;-75
2023/10/11 02:53:50;;;;;;;;;19.00;15.33;;;;;13.90;100.00;101598.41;5038813;28;45671;-75
2023/10/11 02:56:15;;;;;;;;;20.67;17.33;;;;;13.94;100.00;101607.94;5031692;28;45475;-74
2023/10/11 02:58:41;;;;;;;;;17.00;17.00;;;;;13.94;100.00;101612.41;5019074;28;45281;-76
2023/10/11 03:01:16;;;;;;;;;18.00;15.33;;;;;13.90;100.00;101602.88;5031323;28;45774;-75
2023/10/11 03:03:42;;;;;;;;;22.00;19.33;;;;;13.86;100.00;101595.97;5032196;28;45493;-74
2023/10/11 03:06:10;;;;;;;;;17.00;15.67;;;;;13.90;100.00;101602.88;5030726;28;45671;-74
2023/10/11 03:08:37;;;;;;;;;25.33;18.67;;;;;13.87;100.00;101614.50;5023838;28;45811;-75
2023/10/11 03:11:08;;;;;;;;;17.67;17.67;;;;;13.80;100.00;101604.25;5034428;28;48280;-74
2023/10/11 03:13:41;;;;;;;;;16.00;15.00;;;;;13.54;100.00;101561.16;5032735;28;45592;-74
2023/10/11 03:16:11;;;;;;;;;17.67;15.67;;;;;13.54;100.00;101555.84;5033174;28;45313;-75
2023/10/11 03:18:39;;;;;;;;;17.00;14.67;;;;;13.55;100.00;101559.34;5029953;28;45489;-75
2023/10/11 03:21:19;;;;;;;;;18.67;17.67;;;;;13.88;100.00;101610.03;5030693;28;45606;-75
2023/10/11 03:24:03;;;;;;;;;21.33;16.33;;;;;13.76;100.00;101598.22;5038613;28;45569;-75
2023/10/11 03:28:57;;;;;;;;;22.67;17.33;;;;;13.71;100.00;101594.06;5035478;28;45250;-74
2023/10/11 03:31:28;;;;;;;;;16.33;15.33;;;;;13.66;100.00;101580.97;5034604;28;45581;-75
2023/10/11 03:33:58;;;;;;;;;19.33;18.00;;;;;13.33;100.00;101521.44;5039173;28;45526;-75
2023/10/11 03:36:43;;;;;;;;;16.33;15.33;;;;;13.61;100.00;101569.72;5033454;28;45556;-74
2023/10/11 03:39:13;;;;;;;;;21.33;19.67;;;;;13.75;100.00;101585.84;5039371;28;45660;-75
2023/10/11 03:41:45;;;;;;;;;21.00;18.67;;;;;13.74;100.00;101596.56;5029022;28;46659;-73
2023/10/11 03:44:17;;;;;;;;;18.33;16.67;;;;;13.74;100.00;101592.13;5023247;28;45396;-75
2023/10/11 03:46:47;;;;;;;;;15.67;15.33;;;;;13.62;100.00;101590.03;5028021;28;45507;-75
2023/10/11 03:51:49;;;;;;;;;20.00;18.33;;;;;13.62;100.00;101584.69;5024017;28;47942;-75
2023/10/11 03:54:22;;;;;;;;;16.67;16.67;;;;;13.69;100.00;101595.91;5031074;28;45322;-76
2023/10/11 03:56:53;;;;;;;;;21.00;16.67;;;;;13.68;100.00;101591.53;5029043;28;45344;-75
2023/10/11 03:59:26;;;;;;;;;20.33;17.67;;;;;13.52;100.00;101564.81;5035775;28;45485;-75
2023/10/11 04:01:58;;;;;;;;;24.00;21.00;;;;;13.50;100.00;101566.69;5032660;28;46365;-74
2023/10/11 04:04:24;;;;;;;;;18.33;16.67;;;;;13.47;100.00;101565.03;5034686;28;45356;-75
2023/10/11 04:07:00;;;;;;;;;21.67;17.67;;;;;13.54;100.00;101573.59;5036760;28;45360;-75
2023/10/11 04:09:37;;;;;;;;;17.33;17.33;;;;;13.22;100.00;101537.03;5026047;28;45624;-76
2023/10/11 04:12:10;;;;;;;;;23.67;19.33;;;;;13.49;100.00;101572.94;5036302;28;45994;-75
2023/10/11 04:14:44;;;;;;;;;22.33;20.00;;;;;13.33;100.00;101538.25;5038564;28;45403;-75
2023/10/11 04:19:46;;;;;;;;;22.33;16.33;;;;;13.26;100.00;101538.59;5031748;28;45453;-74
2023/10/11 04:22:18;;;;;;;;;13.67;12.00;;;;;13.45;100.00;101558.91;5030714;28;45355;-74
2023/10/11 04:24:46;;;;;;;;;19.67;19.00;;;;;13.49;100.00;101562.28;5027554;28;45517;-75
2023/10/11 04:29:50;;;;;;;;;16.33;15.00;;;;;13.36;100.00;101569.97;5023134;28;45370;-74
2023/10/11 04:32:40;;;;;;;;;18.00;18.00;;;;;13.29;100.00;101562.34;5036181;28;45481;-75
2023/10/11 04:35:21;;;;;;;;;21.33;19.33;;;;;13.15;100.00;101546.22;5031006;28;45451;-75
2023/10/11 04:37:54;;;;;;;;;22.33;17.33;;;;;13.49;100.00;101594.19;5022602;28;45369;-74
2023/10/11 04:40:24;;;;;;;;;19.33;17.67;;;;;13.24;100.00;101548.44;5031175;28;45380;-76
2023/10/11 04:43:04;;;;;;;;;20.00;17.67;;;;;12.95;100.00;101508.13;5032385;28;47181;-74
2023/10/11 04:45:44;;;;;;;;;18.33;15.33;;;;;13.40;100.00;101590.16;5034396;28;45538;-76
2023/10/11 04:48:29;;;;;;;;;22.00;20.33;;;;;13.20;100.00;101558.34;5031946;28;45270;-75
2023/10/11 04:51:04;;;;;;;;;18.00;18.00;;;;;13.32;100.00;101584.34;5023849;28;45544;-75
2023/10/11 04:53:35;;;;;;;;;20.33;17.33;;;;;13.21;100.00;101578.66;5021660;28;47257;-75
2023/10/11 04:58:54;;;;;;;;;27.67;21.00;;;;;13.23;100.00;101589.22;5024439;28;45393;-75
2023/10/11 05:01:22;;;;;;;;;22.67;19.67;;;;;13.28;100.00;101608.47;5019869;28;45686;-75
2023/10/11 05:03:58;;;;;;;;;22.00;19.33;;;;;13.25;100.00;101601.47;5028893;28;47793;-75
2023/10/11 05:06:31;;;;;;;;;16.00;13.33;;;;;13.32;100.00;101605.59;5034742;28;45611;-75
2023/10/11 05:09:13;;;;;;;;;22.67;20.67;;;;;13.32;100.00;101605.59;5031903;28;45463;-76
2023/10/11 05:11:44;;;;;;;;;22.33;18.00;;;;;13.09;100.00;101565.09;5033476;28;45625;-75
2023/10/11 05:15:15;;;;;;;;;20.33;16.33;;;;;13.07;100.00;101560.66;5028789;28;45906;-74
2023/10/11 05:19:44;;;;;;;;;18.67;17.00;;;;;13.14;100.00;101585.19;5033634;28;45312;-75
2023/10/11 05:22:23;;;;;;;;;22.67;21.67;;;;;13.00;100.00;101563.66;5035404;28;45380;-74
2023/10/11 05:25:12;;;;;;;;;21.00;18.33;;;;;13.12;100.00;101580.88;5037091;28;45777;-75
2023/10/11 05:27:47;;;;;;;;;16.67;15.00;;;;;13.12;100.00;101599.47;5037953;28;45371;-75
2023/10/11 05:30:26;;;;;;;;;21.67;18.67;;;;;13.20;100.00;101611.47;5032745;28;45316;-74
2023/10/11 05:52:30;;;;;;;;;23.67;21.00;;;;;12.44;100.00;101502.47;5031370;28;45438;-78
2023/10/11 05:54:57;;;;;;;;;23.00;22.33;;;;;12.50;100.00;101534.03;5021698;28;45281;-78
2023/10/11 05:57:27;;;;;;;;;19.00;18.00;;;;;12.50;100.00;101547.28;5036382;28;45581;-77
2023/10/11 06:00:10;;;;;;;;;20.67;18.67;;;;;12.87;100.00;101602.31;5034313;28;45296;-78
2023/10/11 06:02:38;;;;;;;;;18.67;18.00;;;;;12.54;100.00;101564.81;5037897;28;45393;-77
2023/10/11 06:05:04;;;;;;;;;19.67;19.67;;;;;12.36;100.00;101524.03;5032394;28;45509;-78
2023/10/11 06:07:37;;;;;;;;;14.67;13.00;;;;;12.88;100.00;101627.94;5034475;28;45341;-78
2023/10/11 06:10:07;;;;;;;;;24.33;18.67;;;;;12.79;100.00;101609.75;5029452;28;46349;-77
2023/10/11 06:12:33;;;;;;;;;19.00;16.67;;;;;12.35;100.00;101532.06;5035555;28;45549;-77
2023/10/11 06:15:04;;;;;;;;;18.67;17.33;;;;;12.83;100.00;101613.97;5037393;28;46113;-77
2023/10/11 06:17:48;;;;;;;;;19.67;18.00;;;;;12.90;100.00;101629.59;5027859;28;45466;-77
2023/10/11 06:20:26;;;;;;;;;23.00;19.67;;;;;12.98;100.00;101648.72;5025965;28;45978;-76
2023/10/11 06:22:56;;;;;;;;;21.67;20.33;;;;;12.77;100.00;101606.28;5021016;28;45515;-77
2023/10/11 06:28:15;;;;;;;;;24.00;20.67;;;;;12.93;100.00;101621.47;5034432;28;47259;-77
2023/10/11 06:30:42;;;;;;;;;21.33;20.00;;;;;13.05;100.00;101636.88;5032814;28;45418;-76
2023/10/11 06:33:12;;;;;;;;;19.00;19.00;;;;;13.03;100.00;101643.19;5036641;28;45537;-77
2023/10/11 06:35:49;;;;;;;;;19.33;18.33;;;;;13.05;100.00;101633.38;5032240;28;45640;-77
2023/10/11 06:38:15;;;;;;;;;22.67;22.00;;;;;13.00;100.00;101632.69;5028821;28;45388;-78
2023/10/11 06:40:48;;;;;;;;;28.00;19.00;;;;;13.16;100.00;101670.09;5032026;28;45371;-77
2023/10/11 06:43:15;;;;;;;;;21.33;19.33;;;;;13.18;100.00;101649.66;5032220;28;45307;-77
2023/10/11 06:45:41;;;;;;;;;23.33;20.00;;;;;12.96;100.00;101610.72;5031500;28;45550;-77
2023/10/11 06:48:08;;;;;;;;;19.67;17.00;;;;;13.21;100.00;101645.06;5029685;28;45478;-76
2023/10/11 06:50:36;;;;;;;;;19.67;18.33;;;;;13.07;100.00;101619.09;5035861;28;45557;-77
2023/10/11 06:53:09;;;;;;;;;21.00;20.33;;;;;13.25;100.00;101643.16;5024600;28;45522;-77
2023/10/11 06:55:39;;;;;;;;;21.00;17.33;;;;;13.29;100.00;101647.38;5037992;28;45363;-77
2023/10/11 06:58:09;;;;;;;;;29.67;24.00;;;;;13.33;100.00;101651.63;5025786;28;45548;-77
2023/10/11 07:00:38;;;;;;;;;20.33;20.33;;;;;13.36;100.00;101651.47;5018800;28;45388;-78
2023/10/11 07:03:21;;;;;;;;;26.33;24.00;;;;;13.34;100.00;101653.34;5022508;28;45351;-77
2023/10/11 07:05:56;;;;;;;;;24.33;20.33;;;;;13.38;100.00;101657.59;5019298;28;45519;-77
2023/10/11 07:08:31;;;;;;;;;23.33;21.67;;;;;13.32;100.00;101636.59;5032835;28;47035;-77
2023/10/11 07:11:03;;;;;;;;;24.00;21.67;;;;;13.51;100.00;101656.94;5028530;28;45538;-77
2023/10/11 07:16:21;;;;;;;;;22.00;20.33;;;;;13.37;100.00;101637.28;5025126;28;45461;-77
2023/10/11 07:18:47;;;;;;;;;24.33;22.33;;;;;13.59;100.00;101651.28;5035656;28;45441;-77
2023/10/11 07:21:17;;;;;;;;;34.67;23.00;;;;;13.63;100.00;101647.56;5019362;28;45396;-77
2023/10/11 07:26:23;;;;;;;;;26.33;22.33;;;;;13.59;100.00;101619.41;5025255;28;45265;-77
2023/10/11 07:28:52;;;;;;;;;21.00;19.00;;;;;13.73;100.00;101638.25;5018567;28;45748;-77
2023/10/11 07:31:38;;;;;;;;;30.00;25.00;;;;;13.60;100.00;101605.19;5031072;28;45337;-77
2023/10/11 07:34:09;;;;;;;;;28.00;24.67;;;;;13.74;100.00;101641.75;5044367;28;45495;-78
2023/10/11 07:36:38;;;;;;;;;29.00;25.67;;;;;13.99;100.00;101663.59;5045292;28;45257;-78
2023/10/11 07:39:27;;;;;;;;;25.33;21.33;;;;;14.07;100.00;101662.28;5025608;28;45390;-79
2023/10/11 07:42:01;;;;;;;;;25.00;20.33;;;;;13.84;100.00;101629.75;5035605;28;45529;-78
2023/10/11 07:44:29;;;;;;;;;23.00;22.00;;;;;13.57;100.00;101587.59;5031201;28;45670;-77
2023/10/11 07:46:55;;;;;;;;;24.00;21.33;;;;;13.83;100.00;101617.38;5035395;28;45306;-77
2023/10/11 07:49:37;;;;;;;;;25.33;21.67;;;;;13.82;100.00;101608.56;5034699;28;45591;-77
2023/10/11 07:52:08;;;;;;;;;24.33;20.33;;;;;14.39;100.00;101670.56;5037184;28;45777;-77
2023/10/11 07:54:35;;;;;;;;;18.00;16.67;;;;;14.26;100.00;101645.44;5029173;28;46591;-77
2023/10/11 07:57:02;;;;;;;;;22.33;18.00;;;;;14.45;100.00;101648.94;5030766;27;45576;-78
2023/10/11 07:59:30;;;;;;;;;20.67;17.33;;;;;14.67;100.00;101691.31;5047619;28;46259;-77
2023/10/11 08:02:07;;;;;;;;;19.67;16.67;;;;;14.11;100.00;101569.91;5019241;28;45326;-77
2023/10/11 08:04:46;;;;;;;;;13.67;13.00;;;;;14.19;100.00;101573.06;5041442;28;45733;-77
2023/10/11 08:07:16;;;;;;;;;13.00;12.67;;;;;14.27;100.00;101562.00;5022992;28;45604;-77
2023/10/11 08:09:45;;;;;;;;;14.67;13.33;;;;;14.98;100.00;101665.75;5032572;28;45656;-77
2023/10/11 08:12:38;;;;;;;;;12.00;12.00;;;;;15.22;100.00;101670.72;5034971;28;45645;-77
2023/10/11 08:15:06;;;;;;;;;11.67;8.33;;;;;15.21;100.00;101647.69;5038796;28;45427;-78
2023/10/11 08:17:32;;;;;;;;;7.67;6.00;;;;;15.14;100.00;101604.53;5028808;28;45464;-78
2023/10/11 08:20:00;;;;;;;;;7.67;7.67;;;;;15.05;99.95;101559.72;5023192;28;48401;-78
2023/10/11 08:22:27;;;;;;;;;10.00;7.00;;;;;15.38;95.49;101589.03;5024760;28;45381;-78
2023/10/11 08:25:00;;;;;;;;;9.67;5.67;;;;;15.37;97.52;101555.31;5030080;28;45313;-78
2023/10/11 08:27:28;;;;;;;;;7.00;7.00;;;;;15.42;98.55;101537.25;5019259;28;45571;-79
2023/10/11 08:30:09;;;;;;;;;6.67;6.67;;;;;16.28;98.11;101679.09;5033328;28;47074;-78
2023/10/11 08:32:47;;;;;;;;;7.00;5.67;;;;;16.36;96.69;101665.31;5048217;28;45422;-78
2023/10/11 08:35:18;;;;;;;;;8.33;6.00;;;;;15.91;96.62;101544.22;5030286;28;45503;-78
2023/10/11 08:37:52;;;;;;;;;5.67;4.67;;;;;16.45;97.84;101616.72;5021819;28;45556;-78
2023/10/11 08:40:22;;;;;;;;;6.67;6.67;;;;;16.44;94.99;101588.28;5028062;28;46952;-77
2023/10/11 08:43:01;;;;;;;;;7.33;6.00;;;;;16.45;86.67;101582.88;5034121;28;45533;-77
2023/10/11 08:45:29;;;;;;;;;8.00;5.67;;;;;16.92;81.76;101620.09;5019355;28;45345;-79
2023/10/11 08:47:57;;;;;;;;;7.00;7.00;;;;;17.06;75.29;101609.44;5042835;28;45449;-78
2023/10/11 08:50:26;;;;;;;;;5.67;4.67;;;;;17.58;74.67;101654.38;5022862;28;47294;-78
2023/10/11 08:52:55;;;;;;;;;7.00;6.33;;;;;17.37;79.25;101599.53;5020711;28;45483;-79
2023/10/11 08:55:35;;;;;;;;;5.33;4.33;;;;;17.60;71.77;101631.91;5028565;28;45616;-78
2023/10/11 08:58:55;;;;;;;;;5.00;5.00;;;;;17.60;72.54;101583.75;5039236;28;45595;-78
2023/10/11 09:01:36;;;;;;;;;5.00;5.00;;;;;17.88;67.18;101617.66;5035473;28;45572;-77
2023/10/11 09:04:11;;;;;;;;;6.00;5.00;;;;;18.31;66.38;101646.97;5035286;28;45370;-77
2023/10/11 09:07:04;;;;;;;;;4.00;4.00;;;;;18.04;67.75;101585.38;5028393;28;45745;-77
2023/10/11 09:10:00;;;;;;;;;;;;;;;;;;;;;
2023/10/11 09:12:43;;;;;;;;;5.67;3.00;;;;;18.72;62.57;101658.50;5022385;28;75377;-78
2023/10/11 09:15:14;;;;;;;;;2.67;2.67;;;;;18.28;60.54;101553.44;5025247;28;45353;-78
2023/10/11 09:17:45;;;;;;;;;3.67;3.67;;;;;18.98;59.63;101646.84;5051828;28;45360;-78
2023/10/11 09:20:40;;;;;;;;;6.67;5.00;;;;;18.70;59.91;101585.38;5035081;28;45312;-78
2023/10/11 09:23:08;;;;;;;;;4.67;3.67;;;;;18.92;61.62;101584.75;5040504;28;45694;-78
2023/10/11 09:25:59;;;;;;;;;4.00;4.00;;;;;19.22;60.32;101621.03;5025727;28;45773;-77
2023/10/11 09:28:34;;;;;;;;;3.67;3.67;;;;;19.23;58.17;101601.28;5030986;28;45691;-78
2023/10/11 09:31:48;;;;;;;;;2.67;2.00;;;;;19.60;59.23;101647.00;5019095;28;45492;-78
2023/10/11 09:34:51;;;;;;;;;5.33;5.00;;;;;19.19;53.45;101575.66;5019534;28;45529;-78
2023/10/11 09:37:46;;;;;;;;;;;;;;;;;;;;;
2023/10/11 09:40:31;;;;;;;;;2.67;2.67;;;;;19.33;57.31;101563.94;5018670;28;69562;-79
2023/10/11 09:43:05;;;;;;;;;4.00;3.00;;;;;19.45;56.32;101584.56;5018775;28;45261;-79
2023/10/11 09:45:54;;;;;;;;;6.33;3.67;;;;;19.52;54.80;101563.50;5037819;28;48166;-78
2023/10/11 09:48:47;;;;;;;;;6.00;4.00;;;;;20.07;54.56;101635.50;5039706;28;45338;-77
2023/10/11 09:51:30;;;;;;;;;;;;;;;;;;;;;
2023/10/11 09:54:20;;;;;;;;;3.00;3.00;;;;;20.32;53.88;101651.53;5031124;28;71670;-77
2023/10/11 09:57:04;;;;;;;;;4.00;4.00;;;;;20.33;54.62;101630.91;5021974;28;47237;-77
2023/10/11 10:00:08;;;;;;;;;3.67;3.67;;;;;20.57;53.49;101651.44;5037298;28;45539;-78
2023/10/11 10:05:47;;;;;;;;;4.67;3.00;;;;;20.16;55.07;101570.34;5024160;28;45537;-77
2023/10/11 10:08:40;;;;;;;;;;;;;;;;;;;;;
2023/10/11 10:11:19;;;;;;;;;6.67;5.67;;;;;20.82;53.85;101620.84;5018136;28;72792;-79
2023/10/11 10:14:38;;;;;;;;;;;;;;;;;;;;;
2023/10/11 10:17:51;;;;;;;;;3.00;3.00;;;;;20.58;54.94;101545.63;5034729;28;71842;-78
2023/10/11 10:20:48;;;;;;;;;4.33;3.67;;;;;20.81;54.95;101594.91;5024712;28;45915;-79
2023/10/11 10:23:27;;;;;;;;;6.00;5.33;;;;;21.21;53.56;101633.06;5027038;28;45565;-78
2023/10/11 10:26:31;;;;;;;;;2.33;2.33;;;;;21.29;55.04;101627.94;5042000;28;45569;-78
2023/10/11 10:33:43;;;;;;;;;4.67;4.33;;;;;21.53;53.41;101630.53;5049741;28;46005;-79
2023/10/11 10:36:20;;;;;;;;;5.00;5.00;;;;;21.61;53.54;101618.16;5018530;28;45483;-79
2023/10/11 10:43:19;;;;;;;;;;;;;;;;;;;;;
2023/10/11 10:46:25;;;;;;;;;3.00;3.00;;;;;21.41;53.80;101548.06;5032068;28;75063;-79
2023/10/11 10:48:51;;;;;;;;;5.00;5.00;;;;;21.43;54.12;101532.66;5032923;28;45473;-78
2023/10/11 10:51:42;;;;;;;;;4.33;4.33;;;;;21.71;55.77;101580.56;5034509;28;45528;-78
2023/10/11 10:54:26;;;;;;;;;5.67;3.33;;;;;21.50;53.36;101512.34;5037530;28;45354;-78
2023/10/11 10:57:03;;;;;;;;;5.00;3.67;;;;;21.62;53.68;101528.34;5027259;28;48087;-78
2023/10/11 11:00:20;;;;;;;;;6.00;2.67;;;;;22.04;55.05;101594.00;5038442;28;45620;-78
2023/10/11 11:03:01;;;;;;;;;;;;;;;;;;;;;
2023/10/11 11:06:21;;;;;;;;;;;;;;;;;;;;;
2023/10/11 11:09:23;;;;;;;;;1.00;1.00;;;;;21.82;54.20;101514.06;5005015;28;74496;-78
2023/10/11 11:16:24;;;;;;;;;3.00;3.00;;;;;22.16;55.85;101514.84;5037267;28;45470;-79
2023/10/11 11:22:52;;;;;;;;;6.33;3.00;;;;;22.76;55.27;101581.59;5012098;28;45932;-79
2023/10/11 11:26:08;;;;;;;;;3.00;3.00;;;;;22.59;56.73;101567.81;5015028;28;45507;-79
2023/10/11 11:31:57;;;;;;;;;7.00;6.00;;;;;;;;5030530;28;45762;-79
2023/10/11 11:35:28;;;;;;;;;5.00;4.00;;;;;23.03;55.05;101593.69;5072637;27;47354;-79
2023/10/11 11:38:36;;;;;;;;;;;;;;;;;;;;;
2023/10/11 11:42:04;;;;;;;;;;;;;;;;;;;;;
2023/10/11 11:45:32;;;;;;;;;4.00;4.00;;;;;23.09;55.66;101507.66;5039746;28;72248;-79
2023/10/11 11:49:51;;;;;;;;;;;;;;;;;;;;;
2023/10/11 11:56:00;;;;;;;;;4.67;4.67;;;;;23.72;54.14;101522.63;4953795;28;45554;-80
2023/10/11 12:02:49;;;;;;;;;5.33;3.67;;;;;23.93;53.30;101510.88;5018280;28;45502;-80
2023/10/11 12:17:13;;;;;;;;;4.00;4.00;;;;;23.41;53.82;101418.41;4964840;28;45407;-80
2023/10/11 12:20:50;;;;;;;;;;;;;;;;;;;;;
2023/10/11 12:27:35;;;;;;;;;5.33;4.33;;;;;24.06;53.06;101476.31;4787136;29;45423;-80
2023/10/11 12:31:04;;;;;;;;;6.00;5.33;;;;;23.54;52.88;101389.28;4790746;29;45987;-79
2023/10/11 12:44:52;;;;;;;;;;;;;;;;;;;;;
2023/10/11 12:55:06;;;;;;;;;;;;;;;;;;;;;
2023/10/11 12:58:13;;;;;;;;;6.00;5.00;;;;;24.20;51.47;101376.75;4999896;28;76579;-80
2023/10/11 13:05:30;;;;;;;;;;;;;;;;;;;;;
2023/10/11 13:08:50;;;;;;;;;7.33;3.00;;;;;24.28;51.24;101336.31;4947481;28;71956;-79
2023/10/11 13:11:22;;;;;;;;;4.33;4.33;;;;;24.50;49.98;101364.84;4950987;28;45429;-77
2023/10/11 13:14:41;;;;;;;;;5.00;5.00;;;;;24.86;51.78;101425.38;4999283;28;45457;-77
2023/10/11 13:17:27;;;;;;;;;6.67;5.00;;;;;24.47;51.64;101345.38;5061796;28;45446;-78
2023/10/11 13:20:08;;;;;;;;;5.00;5.00;;;;;24.62;51.47;101360.09;5068883;28;45447;-77
2023/10/11 13:23:39;;;;;;;;;5.33;5.33;;;;;24.48;50.38;101328.09;5071109;27;45510;-78
2023/10/11 13:26:59;;;;;;;;;;;;;;;;;;;;;
2023/10/11 13:30:01;;;;;;;;;6.00;5.00;;;;;25.02;49.76;101389.53;5010336;28;69198;-79
2023/10/11 13:33:24;;;;;;;;;6.00;6.00;;;;;24.64;50.76;101341.88;5016166;28;45524;-77
2023/10/11 13:36:43;;;;;;;;;;;;;;;;;;;;;
2023/10/11 13:39:50;;;;;;;;;4.33;4.33;;;;;25.16;50.02;101411.53;5009138;28;72551;-78
2023/10/11 13:46:22;;;;;;;;;4.33;4.33;;;;;24.59;50.36;101325.22;5076903;28;45423;-77
2023/10/11 13:49:35;;;;;;;;;;;;;;;;;;;;;
2023/10/11 14:02:32;;;;;;;;;8.00;5.00;;;;;24.97;48.02;101338.56;5067162;28;46632;-78
2023/10/11 14:08:08;;;;;;;;;4.00;4.00;;;;;24.87;48.52;101316.13;5020871;28;45595;-78
2023/10/11 14:11:09;;;;;;;;;4.67;4.00;;;;;25.05;46.93;101368.44;5055747;28;45614;-78
2023/10/11 14:17:29;;;;;;;;;4.33;4.33;;;;;24.58;47.12;101272.97;5042865;28;45483;-77
2023/10/11 14:23:45;;;;;;;;;5.00;4.33;;;;;24.68;47.64;101270.22;5073727;28;46151;-77
2023/10/11 14:30:50;;;;;;;;;8.33;5.67;;;;;24.74;47.25;101283.13;4962182;28;45571;-78
2023/10/11 14:33:43;;;;;;;;;;;;;;;;;;;;;
2023/10/11 14:36:50;;;;;;;;;5.67;5.33;;;;;24.72;46.77;101268.91;5063797;28;71422;-77
2023/10/11 14:39:22;;;;;;;;;6.00;4.33;;;;;24.66;46.54;101253.28;5055967;28;46224;-76
2023/10/11 14:44:38;;;;;;;;;4.33;4.33;;;;;25.23;46.63;101358.47;5062024;28;45438;-77
2023/10/11 14:47:36;;;;;;;;;;;;;;;;;;;;;
2023/10/11 14:53:05;;;;;;;;;5.67;5.00;;;;;25.15;47.35;101368.38;5059441;28;45555;-77
2023/10/11 14:55:37;;;;;;;;;5.00;5.00;;;;;25.13;46.45;101344.16;5059588;28;45392;-77
2023/10/11 14:58:22;;;;;;;;;;;;;;;;;;;;;
2023/10/11 15:07:11;;;;;;;;;5.00;4.00;;;;;24.71;47.22;101292.41;4962778;28;45615;-77